Temp: 8.1°C   Baro: 1005.6mb
  Wind: 2.0mph   Dir: WSW (246°)
  Rain: 0.6mm (0.0mm/hr)
  Sun: 0W/m2  Humidity: 94%

Historic data

Bath Spa Weather Station Historical Data
Daily Summary for October 9, 2022 Units:  Both    English   Metric
Daily Weekly Monthly Yearly Custom
  High: Low: Average:
Temperature: 63 °F /  17.2 °C 39.9 °F /  4.4 °C 51.7 °F /  10.9 °C
Dew Point: 52.1 °F /  11.2 °C 37.8 °F /  3.2 °C 45.4 °F /  7.4 °C
Humidity: 93% 62.4% 80%
Wind Speed: 9.8mph /  15.8km/h - 2.4mph /  3.9km/h
Wind Gust: 20mph /  32.2km/h - -
Wind- - SSE
Pressure: 30.23 in /  1023.6 hPa 29.86 in /  1011.1 hPa -
Precipitation: 0.00 in /  0 mm    
Historical Graphs
 
 
Tabular Data for October 9, 2022
Time Temperature Dew Point Pressure Wind Wind Speed Wind Gust Humidity Rainfall Rate (Hourly) solar
00:09 44.2 °F /  6.8 °C 40.6 °F /  4.8 °C 30.23in /  1023.6hPa Calm     87% 0.00in /  0mm 0 W/m2
00:14 44.2 °F /  6.8 °C 40.6 °F /  4.8 °C 30.22in /  1023.2hPa Calm     87% 0.00in /  0mm 0 W/m2
00:19 44.1 °F /  6.7 °C 40.5 °F /  4.7 °C 30.22in /  1023.2hPa Calm     87% 0.00in /  0mm 0 W/m2
00:24 44.1 °F /  6.7 °C 40.6 °F /  4.8 °C 30.22in /  1023.2hPa Calm     87.2% 0.00in /  0mm 0 W/m2
00:29 43.9 °F /  6.6 °C 40.6 °F /  4.8 °C 30.22in /  1023.2hPa Calm     88% 0.00in /  0mm 0 W/m2
00:34 43.8 °F /  6.6 °C 40.5 °F /  4.7 °C 30.22in /  1023.2hPa Calm     87.8% 0.00in /  0mm 0 W/m2
00:39 43.5 °F /  6.4 °C 40.3 °F /  4.6 °C 30.22in /  1023.2hPa Calm     87.8% 0.00in /  0mm 0 W/m2
00:44 43.3 °F /  6.3 °C 40.1 °F /  4.5 °C 30.21in /  1022.9hPa Calm     88% 0.00in /  0mm 0 W/m2
00:49 43.3 °F /  6.3 °C 40 °F /  4.4 °C 30.22in /  1023.2hPa Calm     88% 0.00in /  0mm 0 W/m2
00:54 43.2 °F /  6.2 °C 39.9 °F /  4.4 °C 30.21in /  1022.9hPa Calm     88% 0.00in /  0mm 0 W/m2
00:59 43 °F /  6.1 °C 39.7 °F /  4.3 °C 30.21in /  1022.9hPa Calm     88% 0.00in /  0mm 0 W/m2
01:04 43 °F /  6.1 °C 39.7 °F /  4.3 °C 30.21in /  1022.9hPa Calm     88% 0.00in /  0mm 0 W/m2
01:09 42.7 °F /  5.9 °C 39.5 °F /  4.2 °C 30.21in /  1022.9hPa Calm     88% 0.00in /  0mm 0 W/m2
01:14 42.6 °F /  5.9 °C 39.4 °F /  4.1 °C 30.21in /  1022.9hPa Calm     88% 0.00in /  0mm 0 W/m2
01:19 42.6 °F /  5.9 °C 39.4 °F /  4.1 °C 30.21in /  1022.9hPa Calm     88% 0.00in /  0mm 0 W/m2
01:24 42.4 °F /  5.8 °C 39.2 °F /  4 °C 30.20in /  1022.6hPa Calm     88% 0.00in /  0mm 0 W/m2
01:29 42.4 °F /  5.8 °C 39.2 °F /  4 °C 30.20in /  1022.6hPa Calm     88% 0.00in /  0mm 0 W/m2
01:34 42.3 °F /  5.7 °C 39.2 °F /  4 °C 30.20in /  1022.6hPa Calm     88.6% 0.00in /  0mm 0 W/m2
01:39 42.2 °F /  5.7 °C 39.1 °F /  3.9 °C 30.20in /  1022.6hPa Calm     89% 0.00in /  0mm 0 W/m2
01:44 42.1 °F /  5.6 °C 39 °F /  3.9 °C 30.20in /  1022.6hPa Calm     89% 0.00in /  0mm 0 W/m2
01:49 42.1 °F /  5.6 °C 39 °F /  3.9 °C 30.20in /  1022.6hPa Calm     89% 0.00in /  0mm 0 W/m2
01:54 42.1 °F /  5.6 °C 39 °F /  3.9 °C 30.20in /  1022.6hPa Calm     89% 0.00in /  0mm 0 W/m2
01:59 42.1 °F /  5.6 °C 39 °F /  3.9 °C 30.20in /  1022.6hPa Calm     89% 0.00in /  0mm 0 W/m2
02:04 42 °F /  5.6 °C 38.9 °F /  3.8 °C 30.20in /  1022.6hPa Calm     89% 0.00in /  0mm 0 W/m2
02:09 41.8 °F /  5.4 °C 38.8 °F /  3.8 °C 30.20in /  1022.6hPa Calm     89% 0.00in /  0mm 0 W/m2
02:14 41.7 °F /  5.4 °C 38.7 °F /  3.7 °C 30.19in /  1022.2hPa Calm     89% 0.00in /  0mm 0 W/m2
02:19 41.6 °F /  5.3 °C 38.6 °F /  3.7 °C 30.19in /  1022.2hPa Calm     89% 0.00in /  0mm 0 W/m2
02:24 41.5 °F /  5.3 °C 38.4 °F /  3.6 °C 30.19in /  1022.2hPa Calm     89% 0.00in /  0mm 0 W/m2
02:29 41.4 °F /  5.2 °C 38.4 °F /  3.6 °C 30.19in /  1022.2hPa Calm     89.2% 0.00in /  0mm 0 W/m2
02:34 41.4 °F /  5.2 °C 38.7 °F /  3.7 °C 30.19in /  1022.2hPa Calm     90% 0.00in /  0mm 0 W/m2
02:39 41.4 °F /  5.2 °C 38.7 °F /  3.7 °C 30.19in /  1022.2hPa Calm     90% 0.00in /  0mm 0 W/m2
02:44 41.4 °F /  5.2 °C 38.7 °F /  3.7 °C 30.19in /  1022.2hPa Calm     90% 0.00in /  0mm 0 W/m2
02:49 41.4 °F /  5.2 °C 38.7 °F /  3.7 °C 30.18in /  1021.9hPa Calm     90% 0.00in /  0mm 0 W/m2
02:54 41.4 °F /  5.2 °C 38.7 °F /  3.7 °C 30.18in /  1021.9hPa Calm     90% 0.00in /  0mm 0 W/m2
02:59 41.4 °F /  5.2 °C 38.7 °F /  3.7 °C 30.18in /  1021.9hPa Calm     90% 0.00in /  0mm 0 W/m2
03:04 41.3 °F /  5.2 °C 38.6 °F /  3.7 °C 30.17in /  1021.6hPa Calm     90% 0.00in /  0mm 0 W/m2
03:09 41.2 °F /  5.1 °C 38.5 °F /  3.6 °C 30.17in /  1021.6hPa Calm     90% 0.00in /  0mm 0 W/m2
03:14 41 °F /  5 °C 38.3 °F /  3.5 °C 30.17in /  1021.6hPa Calm     90% 0.00in /  0mm 0 W/m2
03:19 40.9 °F /  4.9 °C 38.2 °F /  3.4 °C 30.17in /  1021.6hPa SSW 0.8mph /  1.3km/h 4mph /  6.4km/h 90% 0.00in /  0mm 0 W/m2
03:24 41.2 °F /  5.1 °C 38.5 °F /  3.6 °C 30.16in /  1021.2hPa East 0.2mph /  0.3km/h 5mph /  8km/h 90% 0.00in /  0mm 0 W/m2
03:29 41.4 °F /  5.2 °C 38.9 °F /  3.8 °C 30.16in /  1021.2hPa East 0.4mph /  0.6km/h 3mph /  4.8km/h 90.4% 0.00in /  0mm 0 W/m2
03:34 41.5 °F /  5.3 °C 39.2 °F /  4 °C 30.16in /  1021.2hPa Calm   3mph /  4.8km/h 91% 0.00in /  0mm 0 W/m2
03:39 41.7 °F /  5.4 °C 39.2 °F /  4 °C 30.16in /  1021.2hPa Calm   1mph /  1.6km/h 91% 0.00in /  0mm 0 W/m2
03:44 42 °F /  5.6 °C 39.5 °F /  4.2 °C 30.16in /  1021.2hPa Calm   1mph /  1.6km/h 91% 0.00in /  0mm 0 W/m2
03:49 42 °F /  5.6 °C 39.5 °F /  4.2 °C 30.15in /  1020.9hPa Calm     91% 0.00in /  0mm 0 W/m2
03:54 41.8 °F /  5.4 °C 39.3 °F /  4.1 °C 30.15in /  1020.9hPa Calm   2mph /  3.2km/h 91% 0.00in /  0mm 0 W/m2
03:59 41.6 °F /  5.3 °C 39.2 °F /  4 °C 30.15in /  1020.9hPa East 0.4mph /  0.6km/h 2mph /  3.2km/h 91% 0.00in /  0mm 0 W/m2
04:04 41.4 °F /  5.2 °C 39.1 °F /  3.9 °C 30.14in /  1020.5hPa Calm   2mph /  3.2km/h 91% 0.00in /  0mm 0 W/m2
04:09 41.4 °F /  5.2 °C 39 °F /  3.9 °C 30.14in /  1020.5hPa Calm     91% 0.00in /  0mm 0 W/m2
04:14 41.2 °F /  5.1 °C 38.8 °F /  3.8 °C 30.14in /  1020.5hPa Calm     91% 0.00in /  0mm 0 W/m2
04:19 41 °F /  5 °C 38.7 °F /  3.7 °C 30.14in /  1020.5hPa Calm     91% 0.00in /  0mm 0 W/m2
04:24 40.8 °F /  4.9 °C 38.5 °F /  3.6 °C 30.14in /  1020.5hPa Calm     91% 0.00in /  0mm 0 W/m2
04:29 40.6 °F /  4.8 °C 38.3 °F /  3.5 °C 30.14in /  1020.5hPa Calm     91% 0.00in /  0mm 0 W/m2
04:34 40.6 °F /  4.8 °C 38.3 °F /  3.5 °C 30.14in /  1020.5hPa Calm   1mph /  1.6km/h 91% 0.00in /  0mm 0 W/m2
04:39 40.5 °F /  4.7 °C 38.1 °F /  3.4 °C 30.14in /  1020.5hPa Calm     91% 0.00in /  0mm 0 W/m2
04:44 40.5 °F /  4.7 °C 38.1 °F /  3.4 °C 30.14in /  1020.5hPa Calm     91% 0.00in /  0mm 0 W/m2
04:49 40.4 °F /  4.7 °C 38 °F /  3.3 °C 30.14in /  1020.5hPa Calm     91% 0.00in /  0mm 0 W/m2
04:54 40.3 °F /  4.6 °C 37.9 °F /  3.3 °C 30.14in /  1020.5hPa Calm     91% 0.00in /  0mm 0 W/m2
04:59 40.3 °F /  4.6 °C 37.9 °F /  3.3 °C 30.13in /  1020.2hPa Calm     91% 0.00in /  0mm 0 W/m2
05:04 40.1 °F /  4.5 °C 37.8 °F /  3.2 °C 30.13in /  1020.2hPa Calm     91% 0.00in /  0mm 0 W/m2
05:09 40.1 °F /  4.5 °C 37.8 °F /  3.2 °C 30.13in /  1020.2hPa Calm     91% 0.00in /  0mm 0 W/m2
05:14 40.3 °F /  4.6 °C 37.9 °F /  3.3 °C 30.13in /  1020.2hPa Calm     91% 0.00in /  0mm 0 W/m2
05:19 40.3 °F /  4.6 °C 37.9 °F /  3.3 °C 30.13in /  1020.2hPa Calm     91% 0.00in /  0mm 0 W/m2
05:24 40.3 °F /  4.6 °C 37.9 °F /  3.3 °C 30.13in /  1020.2hPa Calm     91% 0.00in /  0mm 0 W/m2
05:29 40.3 °F /  4.6 °C 37.9 °F /  3.3 °C 30.12in /  1019.9hPa Calm     91% 0.00in /  0mm 0 W/m2
05:33 40.3 °F /  4.6 °C 37.9 °F /  3.3 °C 30.12in /  1019.9hPa Calm     91% 0.00in /  0mm 0 W/m2
05:39 40.4 °F /  4.7 °C 38.1 °F /  3.4 °C 30.12in /  1019.9hPa Calm     91.2% 0.00in /  0mm 0 W/m2
05:44 40.5 °F /  4.7 °C 38.3 °F /  3.5 °C 30.12in /  1019.9hPa Calm     91.8% 0.00in /  0mm 0 W/m2
05:49 40.5 °F /  4.7 °C 38.3 °F /  3.5 °C 30.12in /  1019.9hPa Calm     92% 0.00in /  0mm 0 W/m2
05:54 40.5 °F /  4.7 °C 38.3 °F /  3.5 °C 30.12in /  1019.9hPa Calm     92% 0.00in /  0mm 0 W/m2
05:59 40.5 °F /  4.7 °C 38.3 °F /  3.5 °C 30.12in /  1019.9hPa Calm     92% 0.00in /  0mm 0 W/m2
06:04 40.5 °F /  4.7 °C 38.2 °F /  3.4 °C 30.12in /  1019.9hPa Calm     91.4% 0.00in /  0mm 0 W/m2
06:09 40.3 °F /  4.6 °C 38 °F /  3.3 °C 30.11in /  1019.5hPa Calm     91.2% 0.00in /  0mm 0 W/m2
06:14 40.3 °F /  4.6 °C 38.1 °F /  3.4 °C 30.11in /  1019.5hPa Calm     91.8% 0.00in /  0mm 0 W/m2
06:19 40.2 °F /  4.6 °C 38 °F /  3.3 °C 30.11in /  1019.5hPa Calm     92% 0.00in /  0mm 0 W/m2
06:24 40.1 °F /  4.5 °C 37.9 °F /  3.3 °C 30.11in /  1019.5hPa Calm     92% 0.00in /  0mm 0 W/m2
06:29 40.1 °F /  4.5 °C 37.9 °F /  3.3 °C 30.11in /  1019.5hPa Calm     92% 0.00in /  0mm 0 W/m2
06:34 40 °F /  4.4 °C 37.9 °F /  3.3 °C 30.11in /  1019.5hPa Calm     92% 0.00in /  0mm 0 W/m2
06:39 39.9 °F /  4.4 °C 37.8 °F /  3.2 °C 30.11in /  1019.5hPa Calm     92% 0.00in /  0mm 0 W/m2
06:44 40 °F /  4.4 °C 37.8 °F /  3.2 °C 30.11in /  1019.5hPa Calm     92% 0.00in /  0mm 0 W/m2
06:49 40.1 °F /  4.5 °C 37.9 °F /  3.3 °C 30.10in /  1019.2hPa Calm     92% 0.00in /  0mm 0 W/m2
06:54 39.9 °F /  4.4 °C 37.8 °F /  3.2 °C 30.10in /  1019.2hPa Calm     92% 0.00in /  0mm 0 W/m2
06:59 39.9 °F /  4.4 °C 37.8 °F /  3.2 °C 30.10in /  1019.2hPa Calm     92% 0.00in /  0mm 0 W/m2
07:04 39.9 °F /  4.4 °C 37.8 °F /  3.2 °C 30.10in /  1019.2hPa Calm     92% 0.00in /  0mm 0 W/m2
07:09 39.9 °F /  4.4 °C 37.8 °F /  3.2 °C 30.10in /  1019.2hPa Calm     92% 0.00in /  0mm 0 W/m2
07:14 40.1 °F /  4.5 °C 37.9 °F /  3.3 °C 30.10in /  1019.2hPa Calm     92% 0.00in /  0mm 0 W/m2
07:19 40.3 °F /  4.6 °C 38.1 °F /  3.4 °C 30.10in /  1019.2hPa Calm     92% 0.00in /  0mm 0 W/m2
07:24 40.3 °F /  4.6 °C 38.1 °F /  3.4 °C 30.10in /  1019.2hPa Calm     92% 0.00in /  0mm 0 W/m2
07:29 40.4 °F /  4.7 °C 38.2 °F /  3.4 °C 30.10in /  1019.2hPa Calm     92% 0.00in /  0mm 0 W/m2
07:34 40.6 °F /  4.8 °C 38.4 °F /  3.6 °C 30.10in /  1019.2hPa Calm     92% 0.00in /  0mm 7 W/m2
07:39 40.7 °F /  4.8 °C 38.6 °F /  3.7 °C 30.10in /  1019.2hPa Calm     92% 0.00in /  0mm 11 W/m2
07:44 40.9 °F /  4.9 °C 38.7 °F /  3.7 °C 30.09in /  1018.8hPa Calm     92% 0.00in /  0mm 14 W/m2
07:49 41.2 °F /  5.1 °C 39 °F /  3.9 °C 30.09in /  1018.8hPa Calm     92% 0.00in /  0mm 18 W/m2
07:54 41.5 °F /  5.3 °C 39.4 °F /  4.1 °C 30.09in /  1018.8hPa Calm     92% 0.00in /  0mm 23 W/m2
07:59 41.8 °F /  5.4 °C 39.7 °F /  4.3 °C 30.09in /  1018.8hPa Calm     92.2% 0.00in /  0mm 32 W/m2
08:04 42.1 °F /  5.6 °C 39.9 °F /  4.4 °C 30.09in /  1018.8hPa Calm     92% 0.00in /  0mm 35 W/m2
08:09 42.3 °F /  5.7 °C 40.2 °F /  4.6 °C 30.09in /  1018.8hPa Calm     92.2% 0.00in /  0mm 37 W/m2
08:14 42.5 °F /  5.8 °C 40.6 °F /  4.8 °C 30.09in /  1018.8hPa Calm     92.6% 0.00in /  0mm 44 W/m2
08:19 43 °F /  6.1 °C 41.2 °F /  5.1 °C 30.09in /  1018.8hPa Calm     93% 0.00in /  0mm 47 W/m2
08:24 43.3 °F /  6.3 °C 41.5 °F /  5.3 °C 30.09in /  1018.8hPa Calm     93% 0.00in /  0mm 44 W/m2
08:29 43.5 °F /  6.4 °C 41.7 °F /  5.4 °C 30.09in /  1018.8hPa Calm     93% 0.00in /  0mm 47 W/m2
08:34 43.9 °F /  6.6 °C 41.9 °F /  5.5 °C 30.09in /  1018.8hPa East 1mph /  1.6km/h 4mph /  6.4km/h 93% 0.00in /  0mm 60 W/m2
08:39 44.6 °F /  7 °C 42.6 °F /  5.9 °C 30.09in /  1018.8hPa East 1.8mph /  2.9km/h 5mph /  8km/h 93% 0.00in /  0mm 72 W/m2
08:44 45.3 °F /  7.4 °C 43.3 °F /  6.3 °C 30.09in /  1018.8hPa East 1.8mph /  2.9km/h 5mph /  8km/h 93% 0.00in /  0mm 81 W/m2
08:49 46.1 °F /  7.8 °C 44.2 °F /  6.8 °C 30.09in /  1018.8hPa ESE 1.5mph /  2.4km/h 5mph /  8km/h 93% 0.00in /  0mm 93 W/m2
08:54 46.7 °F /  8.2 °C 44.8 °F /  7.1 °C 30.09in /  1018.8hPa ESE 0.9mph /  1.4km/h 5mph /  8km/h 93% 0.00in /  0mm 98 W/m2
08:59 47.1 °F /  8.4 °C 45.2 °F /  7.3 °C 30.09in /  1018.8hPa ESE 1.5mph /  2.4km/h 5mph /  8km/h 93% 0.00in /  0mm 95 W/m2
09:04 47.6 °F /  8.7 °C 45.6 °F /  7.6 °C 30.09in /  1018.8hPa ESE 2mph /  3.2km/h 5mph /  8km/h 93% 0.00in /  0mm 123 W/m2
09:09 47.9 °F /  8.8 °C 45.9 °F /  7.7 °C 30.09in /  1018.8hPa ESE 2.1mph /  3.4km/h 5mph /  8km/h 93% 0.00in /  0mm 190 W/m2
09:14 48.6 °F /  9.2 °C 46.6 °F /  8.1 °C 30.09in /  1018.8hPa ESE 1.6mph /  2.6km/h 5mph /  8km/h 93% 0.00in /  0mm 188 W/m2
09:19 49.2 °F /  9.6 °C 47.2 °F /  8.4 °C 30.08in /  1018.5hPa ESE 1.4mph /  2.3km/h 5mph /  8km/h 93% 0.00in /  0mm 202 W/m2
09:24 49.8 °F /  9.9 °C 47.8 °F /  8.8 °C 30.08in /  1018.5hPa ESE 4.3mph /  6.9km/h 7mph /  11.3km/h 92.4% 0.00in /  0mm 229 W/m2
09:29 50.4 °F /  10.2 °C 48.3 °F /  9.1 °C 30.08in /  1018.5hPa SE 2.5mph /  4km/h 7mph /  11.3km/h 92% 0.00in /  0mm 174 W/m2
09:34 50.9 °F /  10.5 °C 48.8 °F /  9.3 °C 30.08in /  1018.5hPa SE 2.8mph /  4.5km/h 5mph /  8km/h 92% 0.00in /  0mm 174 W/m2
09:39 51.4 °F /  10.8 °C 48.9 °F /  9.4 °C 30.08in /  1018.5hPa SE 2.1mph /  3.4km/h 6mph /  9.7km/h 91% 0.00in /  0mm 193 W/m2
09:44 51.8 °F /  11 °C 49.2 °F /  9.6 °C 30.07in /  1018.2hPa ESE 2.5mph /  4km/h 5mph /  8km/h 90.6% 0.00in /  0mm 220 W/m2
09:49 52.3 °F /  11.3 °C 49.4 °F /  9.7 °C 30.07in /  1018.2hPa ESE 1mph /  1.6km/h 5mph /  8km/h 90% 0.00in /  0mm 229 W/m2
09:54 52.7 °F /  11.5 °C 49.5 °F /  9.7 °C 30.07in /  1018.2hPa ESE 2mph /  3.2km/h 5mph /  8km/h 89% 0.00in /  0mm 230 W/m2
09:59 53 °F /  11.7 °C 49.6 °F /  9.8 °C 30.07in /  1018.2hPa SE 2.1mph /  3.4km/h 5mph /  8km/h 88.2% 0.00in /  0mm 200 W/m2
10:04 53.2 °F /  11.8 °C 49.5 °F /  9.7 °C 30.07in /  1018.2hPa SE 2.6mph /  4.2km/h 5mph /  8km/h 87.2% 0.00in /  0mm 193 W/m2
10:09 53.5 °F /  11.9 °C 49.6 °F /  9.8 °C 30.07in /  1018.2hPa SE 3mph /  4.8km/h 6mph /  9.7km/h 86.8% 0.00in /  0mm 181 W/m2
10:14 53.8 °F /  12.1 °C 49.6 °F /  9.8 °C 30.07in /  1018.2hPa SSE 1.9mph /  3.1km/h 5mph /  8km/h 85.6% 0.00in /  0mm 202 W/m2
10:19 54.1 °F /  12.3 °C 49.8 °F /  9.9 °C 30.07in /  1018.2hPa SE 3.2mph /  5.1km/h 7mph /  11.3km/h 85% 0.00in /  0mm 206 W/m2
10:24 54.3 °F /  12.4 °C 49.6 °F /  9.8 °C 30.07in /  1018.2hPa SSE 1.6mph /  2.6km/h 5mph /  8km/h 84% 0.00in /  0mm 186 W/m2
10:29 54.5 °F /  12.5 °C 49.6 °F /  9.8 °C 30.06in /  1017.8hPa SE 3.7mph /  6km/h 6mph /  9.7km/h 83.2% 0.00in /  0mm 167 W/m2
10:34 54.8 °F /  12.7 °C 49.7 °F /  9.8 °C 30.06in /  1017.8hPa ESE 2mph /  3.2km/h 7mph /  11.3km/h 83% 0.00in /  0mm 200 W/m2
10:39 55.2 °F /  12.9 °C 50.1 °F /  10.1 °C 30.06in /  1017.8hPa ESE 3.9mph /  6.3km/h 8mph /  12.9km/h 82.8% 0.00in /  0mm 316 W/m2
10:44 55.9 °F /  13.3 °C 50.5 °F /  10.3 °C 30.06in /  1017.8hPa ESE 3.5mph /  5.6km/h 8mph /  12.9km/h 82% 0.00in /  0mm 355 W/m2
10:49 56.7 °F /  13.7 °C 50.9 °F /  10.5 °C 30.06in /  1017.8hPa SE 2.1mph /  3.4km/h 8mph /  12.9km/h 81.2% 0.00in /  0mm 380 W/m2
10:54 56.9 °F /  13.8 °C 50.8 °F /  10.4 °C 30.05in /  1017.5hPa SE 3.4mph /  5.5km/h 7mph /  11.3km/h 80% 0.00in /  0mm 436 W/m2
10:59 57.1 °F /  13.9 °C 50.7 °F /  10.4 °C 30.05in /  1017.5hPa SSE 2.6mph /  4.2km/h 7mph /  11.3km/h 79.2% 0.00in /  0mm 441 W/m2
11:04 57.3 °F /  14.1 °C 50.8 °F /  10.4 °C 30.05in /  1017.5hPa SE 3mph /  4.8km/h 7mph /  11.3km/h 79% 0.00in /  0mm 216 W/m2
11:09 57.7 °F /  14.3 °C 51.3 °F /  10.7 °C 30.05in /  1017.5hPa SE 2.4mph /  3.9km/h 5mph /  8km/h 79% 0.00in /  0mm 248 W/m2
11:14 58.2 °F /  14.6 °C 51.7 °F /  10.9 °C 30.05in /  1017.5hPa SE 1.8mph /  2.9km/h 5mph /  8km/h 79% 0.00in /  0mm 408 W/m2
11:19 58.5 °F /  14.7 °C 51.6 °F /  10.9 °C 30.04in /  1017.2hPa SSE 1.4mph /  2.3km/h 4mph /  6.4km/h 78% 0.00in /  0mm 232 W/m2
11:24 58.6 °F /  14.8 °C 51.8 °F /  11 °C 30.04in /  1017.2hPa SSE 1.6mph /  2.6km/h 4mph /  6.4km/h 78% 0.00in /  0mm 510 W/m2
11:29 59.2 °F /  15.1 °C 52.1 °F /  11.2 °C 30.04in /  1017.2hPa SSW 3.7mph /  6km/h 7mph /  11.3km/h 77.4% 0.00in /  0mm 239 W/m2
11:34 59.9 °F /  15.5 °C 52.1 °F /  11.2 °C 30.04in /  1017.2hPa South 4.5mph /  7.2km/h 11mph /  17.7km/h 75.4% 0.00in /  0mm 274 W/m2
11:39 60.2 °F /  15.7 °C 51.2 °F /  10.7 °C 30.04in /  1017.2hPa South 8.8mph /  14.2km/h 16mph /  25.7km/h 72% 0.00in /  0mm 606 W/m2
11:44 60.9 °F /  16.1 °C 51.1 °F /  10.6 °C 30.03in /  1016.8hPa South 6.4mph /  10.3km/h 14mph /  22.5km/h 70.4% 0.00in /  0mm 568 W/m2
11:49 61.3 °F /  16.3 °C 51.2 °F /  10.7 °C 30.03in /  1016.8hPa South 5.4mph /  8.7km/h 15mph /  24.1km/h 69.6% 0.00in /  0mm 512 W/m2
11:54 61.3 °F /  16.3 °C 51.1 °F /  10.6 °C 30.03in /  1016.8hPa SSE 8mph /  12.9km/h 14mph /  22.5km/h 69% 0.00in /  0mm 489 W/m2
11:59 61.3 °F /  16.3 °C 50.8 °F /  10.4 °C 30.03in /  1016.8hPa SSE 6.6mph /  10.6km/h 13mph /  20.9km/h 68.4% 0.00in /  0mm 464 W/m2
12:04 61.3 °F /  16.3 °C 50.9 °F /  10.5 °C 30.03in /  1016.8hPa SSE 6mph /  9.7km/h 14mph /  22.5km/h 68.6% 0.00in /  0mm 668 W/m2
12:09 61.3 °F /  16.3 °C 50.7 °F /  10.4 °C 30.02in /  1016.5hPa SSW 8.8mph /  14.2km/h 14mph /  22.5km/h 68% 0.00in /  0mm 594 W/m2
12:14 62 °F /  16.7 °C 51.7 °F /  10.9 °C 30.02in /  1016.5hPa South 7.8mph /  12.6km/h 13mph /  20.9km/h 69% 0.00in /  0mm 640 W/m2
12:19 62.2 °F /  16.8 °C 51.3 °F /  10.7 °C 30.02in /  1016.5hPa SSE 9mph /  14.5km/h 15mph /  24.1km/h 67.4% 0.00in /  0mm 659 W/m2
12:24 62.4 °F /  16.9 °C 51.1 °F /  10.6 °C 30.02in /  1016.5hPa South 6.8mph /  10.9km/h 14mph /  22.5km/h 66.4% 0.00in /  0mm 677 W/m2
12:29 63 °F /  17.2 °C 51.5 °F /  10.8 °C 30.02in /  1016.5hPa South 7.8mph /  12.6km/h 14mph /  22.5km/h 66% 0.00in /  0mm 693 W/m2
12:34 63 °F /  17.2 °C 51.3 °F /  10.7 °C 30.01in /  1016.1hPa South 8mph /  12.9km/h 14mph /  22.5km/h 65.6% 0.00in /  0mm 673 W/m2
12:39 62.3 °F /  16.8 °C 50.8 °F /  10.4 °C 30.02in /  1016.5hPa South 6.6mph /  10.6km/h 16mph /  25.7km/h 66% 0.00in /  0mm 251 W/m2
12:44 61.5 °F /  16.4 °C 50.7 °F /  10.4 °C 30.01in /  1016.1hPa South 8mph /  12.9km/h 18mph /  29km/h 67.6% 0.00in /  0mm 221 W/m2
12:49 61.3 °F /  16.3 °C 50.9 °F /  10.5 °C 30.01in /  1016.1hPa SSW 5.4mph /  8.7km/h 12mph /  19.3km/h 68.6% 0.00in /  0mm 227 W/m2
12:54 61.3 °F /  16.3 °C 51.1 °F /  10.6 °C 30.01in /  1016.1hPa South 6.2mph /  10km/h 12mph /  19.3km/h 69% 0.00in /  0mm 223 W/m2
12:59 61.4 °F /  16.3 °C 51.1 °F /  10.6 °C 30.01in /  1016.1hPa South 5.3mph /  8.5km/h 12mph /  19.3km/h 68.6% 0.00in /  0mm 294 W/m2
13:04 61.5 °F /  16.4 °C 51.1 °F /  10.6 °C 30.01in /  1016.1hPa South 4.3mph /  6.9km/h 9mph /  14.5km/h 68.4% 0.00in /  0mm 290 W/m2
13:09 61.3 °F /  16.3 °C 50.8 °F /  10.4 °C 30.01in /  1016.1hPa South 9.8mph /  15.8km/h 16mph /  25.7km/h 68.4% 0.00in /  0mm 253 W/m2
13:14 61.1 °F /  16.2 °C 50.4 °F /  10.2 °C 30.00in /  1015.8hPa South 8.8mph /  14.2km/h 15mph /  24.1km/h 68% 0.00in /  0mm 410 W/m2
13:19 61.2 °F /  16.2 °C 50.5 °F /  10.3 °C 30.00in /  1015.8hPa SSE 9mph /  14.5km/h 17mph /  27.4km/h 68% 0.00in /  0mm 338 W/m2
13:24 61.3 °F /  16.3 °C 50.6 °F /  10.3 °C 30.00in /  1015.8hPa SE 8mph /  12.9km/h 16mph /  25.7km/h 68% 0.00in /  0mm 297 W/m2
13:29 61.3 °F /  16.3 °C 50.3 °F /  10.2 °C 29.99in /  1015.5hPa South 5.7mph /  9.2km/h 19mph /  30.6km/h 67% 0.00in /  0mm 359 W/m2
13:34 61.5 °F /  16.4 °C 50 °F /  10 °C 29.99in /  1015.5hPa South 7.4mph /  11.9km/h 19mph /  30.6km/h 66% 0.00in /  0mm 390 W/m2
13:39 61.7 °F /  16.5 °C 50.2 °F /  10.1 °C 29.99in /  1015.5hPa South 6mph /  9.7km/h 15mph /  24.1km/h 66% 0.00in /  0mm 323 W/m2
13:44 61.5 °F /  16.4 °C 50 °F /  10 °C 29.98in /  1015.1hPa SSW 5.4mph /  8.7km/h 11mph /  17.7km/h 66% 0.00in /  0mm 308 W/m2
13:49 61.9 °F /  16.6 °C 50.6 °F /  10.3 °C 29.98in /  1015.1hPa South 5.2mph /  8.4km/h 12mph /  19.3km/h 66.6% 0.00in /  0mm 485 W/m2
13:54 61.9 °F /  16.6 °C 50.1 °F /  10.1 °C 29.98in /  1015.1hPa SSE 9mph /  14.5km/h 18mph /  29km/h 65.4% 0.00in /  0mm 492 W/m2
13:59 61.7 °F /  16.5 °C 50.2 °F /  10.1 °C 29.98in /  1015.1hPa South 6.8mph /  10.9km/h 16mph /  25.7km/h 66% 0.00in /  0mm 443 W/m2
14:04 61.8 °F /  16.6 °C 50.3 °F /  10.2 °C 29.98in /  1015.1hPa SSE 8.2mph /  13.2km/h 13mph /  20.9km/h 66% 0.00in /  0mm 454 W/m2
14:09 61.5 °F /  16.4 °C 50 °F /  10 °C 29.97in /  1014.8hPa SSE 7.7mph /  12.4km/h 15mph /  24.1km/h 66% 0.00in /  0mm 468 W/m2
14:14 61.4 °F /  16.3 °C 49.7 °F /  9.8 °C 29.97in /  1014.8hPa SSE 9mph /  14.5km/h 20mph /  32.2km/h 65.6% 0.00in /  0mm 401 W/m2
14:19 61.5 °F /  16.4 °C 49.8 °F /  9.9 °C 29.97in /  1014.8hPa South 7.8mph /  12.6km/h 14mph /  22.5km/h 65.4% 0.00in /  0mm 461 W/m2
14:24 61.9 °F /  16.6 °C 49.7 °F /  9.8 °C 29.96in /  1014.4hPa South 5.7mph /  9.2km/h 15mph /  24.1km/h 64.2% 0.00in /  0mm 452 W/m2
14:29 62.1 °F /  16.7 °C 49.6 °F /  9.8 °C 29.96in /  1014.4hPa SSW 9.4mph /  15.1km/h 14mph /  22.5km/h 63.6% 0.00in /  0mm 513 W/m2
14:34 62.3 °F /  16.8 °C 49.9 °F /  9.9 °C 29.96in /  1014.4hPa South 7.5mph /  12.1km/h 14mph /  22.5km/h 63.8% 0.00in /  0mm 494 W/m2
14:39 62.2 °F /  16.8 °C 49.5 °F /  9.7 °C 29.95in /  1014.1hPa SSE 9.4mph /  15.1km/h 16mph /  25.7km/h 63.2% 0.00in /  0mm 452 W/m2
14:44 61.7 °F /  16.5 °C 48.7 °F /  9.3 °C 29.96in /  1014.4hPa SSE 9.1mph /  14.6km/h 17mph /  27.4km/h 62.4% 0.00in /  0mm 403 W/m2
14:49 61.4 °F /  16.3 °C 49 °F /  9.4 °C 29.95in /  1014.1hPa South 5.6mph /  9km/h 17mph /  27.4km/h 63.6% 0.00in /  0mm 489 W/m2
14:54 62.2 °F /  16.8 °C 49.8 °F /  9.9 °C 29.95in /  1014.1hPa SSW 5.3mph /  8.5km/h 11mph /  17.7km/h 63.8% 0.00in /  0mm 415 W/m2
14:59 62.4 °F /  16.9 °C 49.8 °F /  9.9 °C 29.95in /  1014.1hPa SSW 5.8mph /  9.3km/h 20mph /  32.2km/h 63.4% 0.00in /  0mm 318 W/m2
15:04 62.1 °F /  16.7 °C 49.5 °F /  9.7 °C 29.95in /  1014.1hPa South 4.9mph /  7.9km/h 15mph /  24.1km/h 63.4% 0.00in /  0mm 383 W/m2
15:09 61.7 °F /  16.5 °C 49.4 °F /  9.7 °C 29.94in /  1013.8hPa South 7.6mph /  12.2km/h 16mph /  25.7km/h 64% 0.00in /  0mm 380 W/m2
15:14 61.3 °F /  16.3 °C 49.4 °F /  9.7 °C 29.94in /  1013.8hPa South 5.8mph /  9.3km/h 15mph /  24.1km/h 64.8% 0.00in /  0mm 346 W/m2
15:19 61.5 °F /  16.4 °C 49.5 °F /  9.7 °C 29.93in /  1013.4hPa South 4.6mph /  7.4km/h 12mph /  19.3km/h 64.6% 0.00in /  0mm 401 W/m2
15:24 62.3 °F /  16.8 °C 49.9 °F /  9.9 °C 29.93in /  1013.4hPa South 3.5mph /  5.6km/h 10mph /  16.1km/h 63.8% 0.00in /  0mm 462 W/m2
15:29 62.6 °F /  17 °C 49.9 °F /  9.9 °C 29.93in /  1013.4hPa South 5.9mph /  9.5km/h 9mph /  14.5km/h 63.2% 0.00in /  0mm 476 W/m2
15:34 62.8 °F /  17.1 °C 50 °F /  10 °C 29.93in /  1013.4hPa SSW 4mph /  6.4km/h 7mph /  11.3km/h 63% 0.00in /  0mm 452 W/m2
15:39 62.5 °F /  16.9 °C 49.7 °F /  9.8 °C 29.93in /  1013.4hPa SSW 8.5mph /  13.7km/h 13mph /  20.9km/h 63% 0.00in /  0mm 374 W/m2
15:44 62.1 °F /  16.7 °C 49.3 °F /  9.6 °C 29.93in /  1013.4hPa SSW 5.4mph /  8.7km/h 10mph /  16.1km/h 63% 0.00in /  0mm 348 W/m2
15:49 61.9 °F /  16.6 °C 49.1 °F /  9.5 °C 29.93in /  1013.4hPa South 5.1mph /  8.2km/h 10mph /  16.1km/h 63% 0.00in /  0mm 415 W/m2
15:54 61.8 °F /  16.6 °C 49.5 °F /  9.7 °C 29.93in /  1013.4hPa South 4mph /  6.4km/h 10mph /  16.1km/h 64% 0.00in /  0mm 360 W/m2
15:59 61.5 °F /  16.4 °C 49 °F /  9.4 °C 29.93in /  1013.4hPa SE 6.7mph /  10.8km/h 14mph /  22.5km/h 63.6% 0.00in /  0mm 283 W/m2
16:04 61 °F /  16.1 °C 49.1 °F /  9.5 °C 29.93in /  1013.4hPa SSE 6.8mph /  10.9km/h 12mph /  19.3km/h 65% 0.00in /  0mm 329 W/m2
16:09 61 °F /  16.1 °C 49.1 °F /  9.5 °C 29.93in /  1013.4hPa SSE 7.5mph /  12.1km/h 16mph /  25.7km/h 65% 0.00in /  0mm 327 W/m2
16:14 61.1 °F /  16.2 °C 49.3 °F /  9.6 °C 29.92in /  1013.1hPa South 2.5mph /  4km/h 10mph /  16.1km/h 65% 0.00in /  0mm 279 W/m2
16:19 60.9 °F /  16.1 °C 48.7 °F /  9.3 °C 29.92in /  1013.1hPa SSE 7.2mph /  11.6km/h 18mph /  29km/h 64% 0.00in /  0mm 279 W/m2
16:24 60.9 °F /  16.1 °C 48.7 °F /  9.3 °C 29.93in /  1013.4hPa SSE 4.8mph /  7.7km/h 11mph /  17.7km/h 64.2% 0.00in /  0mm 265 W/m2
16:29 60.7 °F /  15.9 °C 48.3 °F /  9.1 °C 29.92in /  1013.1hPa South 5.9mph /  9.5km/h 14mph /  22.5km/h 63.6% 0.00in /  0mm 220 W/m2
16:34 60.3 °F /  15.7 °C 48.1 °F /  8.9 °C 29.92in /  1013.1hPa SSE 5.1mph /  8.2km/h 13mph /  20.9km/h 64% 0.00in /  0mm 171 W/m2
16:39 60.3 °F /  15.7 °C 47.8 °F /  8.8 °C 29.92in /  1013.1hPa SSW 6.3mph /  10.1km/h 13mph /  20.9km/h 63.6% 0.00in /  0mm 223 W/m2
16:44 60.4 °F /  15.8 °C 48.2 °F /  9 °C 29.92in /  1013.1hPa SSE 6.7mph /  10.8km/h 12mph /  19.3km/h 64% 0.00in /  0mm 264 W/m2
16:49 59.9 °F /  15.5 °C 47.9 °F /  8.8 °C 29.91in /  1012.8hPa SSE 5.7mph /  9.2km/h 12mph /  19.3km/h 64.4% 0.00in /  0mm 107 W/m2
16:54 59.5 °F /  15.3 °C 48.1 °F /  8.9 °C 29.91in /  1012.8hPa SSE 6.4mph /  10.3km/h 11mph /  17.7km/h 65.8% 0.00in /  0mm 111 W/m2
16:59 59.5 °F /  15.3 °C 48.3 °F /  9.1 °C 29.92in /  1013.1hPa SSE 4.4mph /  7.1km/h 13mph /  20.9km/h 66.2% 0.00in /  0mm 120 W/m2
17:04 59.5 °F /  15.3 °C 48.1 °F /  8.9 °C 29.91in /  1012.8hPa South 5.6mph /  9km/h 14mph /  22.5km/h 66% 0.00in /  0mm 121 W/m2
17:09 59.4 °F /  15.2 °C 48.1 °F /  8.9 °C 29.92in /  1013.1hPa SSW 6.4mph /  10.3km/h 12mph /  19.3km/h 66.2% 0.00in /  0mm 118 W/m2
17:14 59.2 °F /  15.1 °C 48.2 °F /  9 °C 29.91in /  1012.8hPa South 4.7mph /  7.6km/h 10mph /  16.1km/h 67% 0.00in /  0mm 100 W/m2
17:19 59 °F /  15 °C 48 °F /  8.9 °C 29.91in /  1012.8hPa South 6.6mph /  10.6km/h 11mph /  17.7km/h 67% 0.00in /  0mm 77 W/m2
17:24 58.8 °F /  14.9 °C 48 °F /  8.9 °C 29.91in /  1012.8hPa SSE 3.3mph /  5.3km/h 9mph /  14.5km/h 67.6% 0.00in /  0mm 62 W/m2
17:29 58.6 °F /  14.8 °C 48.1 °F /  8.9 °C 29.91in /  1012.8hPa South 6.4mph /  10.3km/h 11mph /  17.7km/h 68% 0.00in /  0mm 47 W/m2
17:33 58.5 °F /  14.7 °C 48 °F /  8.9 °C 29.91in /  1012.8hPa SSE 5.5mph /  8.9km/h 11mph /  17.7km/h 68% 0.00in /  0mm 46 W/m2
17:39 58.3 °F /  14.6 °C 47.8 °F /  8.8 °C 29.91in /  1012.8hPa SSE 5.5mph /  8.9km/h 12mph /  19.3km/h 68% 0.00in /  0mm 42 W/m2
17:44 58.1 °F /  14.5 °C 48 °F /  8.9 °C 29.91in /  1012.8hPa SSE 4.4mph /  7.1km/h 12mph /  19.3km/h 69% 0.00in /  0mm 33 W/m2
17:49 58.1 °F /  14.5 °C 48 °F /  8.9 °C 29.91in /  1012.8hPa SSE 3.7mph /  6km/h 8mph /  12.9km/h 69% 0.00in /  0mm 33 W/m2
17:54 58 °F /  14.4 °C 47.9 °F /  8.8 °C 29.91in /  1012.8hPa South 5.6mph /  9km/h 8mph /  12.9km/h 69% 0.00in /  0mm 28 W/m2
17:59 57.7 °F /  14.3 °C 47.9 °F /  8.8 °C 29.91in /  1012.8hPa South 3.6mph /  5.8km/h 8mph /  12.9km/h 69.6% 0.00in /  0mm 26 W/m2
18:04 57.7 °F /  14.3 °C 48 °F /  8.9 °C 29.91in /  1012.8hPa South 2.7mph /  4.3km/h 8mph /  12.9km/h 70% 0.00in /  0mm 25 W/m2
18:09 57.6 °F /  14.2 °C 48 °F /  8.9 °C 29.91in /  1012.8hPa South 2mph /  3.2km/h 5mph /  8km/h 70.4% 0.00in /  0mm 16 W/m2
18:14 57.5 °F /  14.2 °C 48.2 °F /  9 °C 29.91in /  1012.8hPa South 1.8mph /  2.9km/h 5mph /  8km/h 71% 0.00in /  0mm 11 W/m2
18:19 58.1 °F /  14.5 °C 49.1 °F /  9.5 °C 29.91in /  1012.8hPa South 1.3mph /  2.1km/h 4mph /  6.4km/h 72% 0.00in /  0mm 5 W/m2
18:24 58 °F /  14.4 °C 48.6 °F /  9.2 °C 29.91in /  1012.8hPa South 1mph /  1.6km/h 4mph /  6.4km/h 71% 0.00in /  0mm 5 W/m2
18:29 57.9 °F /  14.4 °C 48.8 °F /  9.3 °C 29.91in /  1012.8hPa SSE 1.6mph /  2.6km/h 6mph /  9.7km/h 71.6% 0.00in /  0mm 5 W/m2
18:34 57.7 °F /  14.3 °C 48.6 °F /  9.2 °C 29.91in /  1012.8hPa SE 1mph /  1.6km/h 3mph /  4.8km/h 71.6% 0.00in /  0mm 5 W/m2
18:39 57.6 °F /  14.2 °C 48.5 °F /  9.2 °C 29.91in /  1012.8hPa SE 2mph /  3.2km/h 4mph /  6.4km/h 71.8% 0.00in /  0mm 0 W/m2
18:44 57.4 °F /  14.1 °C 48.5 °F /  9.2 °C 29.91in /  1012.8hPa SE 2mph /  3.2km/h 6mph /  9.7km/h 72.4% 0.00in /  0mm 0 W/m2
18:49 57.4 °F /  14.1 °C 48.7 °F /  9.3 °C 29.91in /  1012.8hPa ESE 2mph /  3.2km/h 6mph /  9.7km/h 73% 0.00in /  0mm 0 W/m2
18:54 57.4 °F /  14.1 °C 48.8 °F /  9.3 °C 29.91in /  1012.8hPa ESE 1.7mph /  2.7km/h 3mph /  4.8km/h 73.2% 0.00in /  0mm 0 W/m2
18:59 57.2 °F /  14 °C 48.6 °F /  9.2 °C 29.91in /  1012.8hPa ESE 1.3mph /  2.1km/h 4mph /  6.4km/h 73% 0.00in /  0mm 0 W/m2
19:04 56.9 °F /  13.8 °C 48.3 °F /  9.1 °C 29.91in /  1012.8hPa ESE 2.3mph /  3.7km/h 7mph /  11.3km/h 73% 0.00in /  0mm 0 W/m2
19:09 56.7 °F /  13.7 °C 48 °F /  8.9 °C 29.91in /  1012.8hPa South 2.2mph /  3.5km/h 8mph /  12.9km/h 73% 0.00in /  0mm 0 W/m2
19:14 56.4 °F /  13.6 °C 48.3 °F /  9.1 °C 29.91in /  1012.8hPa SSE 2mph /  3.2km/h 6mph /  9.7km/h 74% 0.00in /  0mm 0 W/m2
19:19 56.9 °F /  13.8 °C 49 °F /  9.4 °C 29.91in /  1012.8hPa SSE 0.8mph /  1.3km/h 4mph /  6.4km/h 74.8% 0.00in /  0mm 0 W/m2
19:24 57.3 °F /  14.1 °C 49.2 °F /  9.6 °C 29.91in /  1012.8hPa SSE 2mph /  3.2km/h 5mph /  8km/h 74.6% 0.00in /  0mm 0 W/m2
19:29 56.8 °F /  13.8 °C 48.7 °F /  9.3 °C 29.91in /  1012.8hPa SSE 1.7mph /  2.7km/h 4mph /  6.4km/h 74.2% 0.00in /  0mm 0 W/m2
19:34 56.3 °F /  13.5 °C 48.2 °F /  9 °C 29.91in /  1012.8hPa SE 3.7mph /  6km/h 7mph /  11.3km/h 74% 0.00in /  0mm 0 W/m2
19:39 56 °F /  13.3 °C 48.3 °F /  9.1 °C 29.91in /  1012.8hPa SE 4.4mph /  7.1km/h 7mph /  11.3km/h 75% 0.00in /  0mm 0 W/m2
19:44 55.8 °F /  13.2 °C 48 °F /  8.9 °C 29.91in /  1012.8hPa SSW 1.3mph /  2.1km/h 6mph /  9.7km/h 75% 0.00in /  0mm 0 W/m2
19:49 56 °F /  13.3 °C 48.6 °F /  9.2 °C 29.91in /  1012.8hPa ESE 2.8mph /  4.5km/h 7mph /  11.3km/h 76% 0.00in /  0mm 0 W/m2
19:54 56.7 °F /  13.7 °C 49.4 °F /  9.7 °C 29.90in /  1012.4hPa East 1.7mph /  2.7km/h 3mph /  4.8km/h 76.6% 0.00in /  0mm 0 W/m2
19:59 56.8 °F /  13.8 °C 49.3 °F /  9.6 °C 29.90in /  1012.4hPa East 2.1mph /  3.4km/h 5mph /  8km/h 76% 0.00in /  0mm 0 W/m2
20:04 56.8 °F /  13.8 °C 49.3 °F /  9.6 °C 29.90in /  1012.4hPa East 2mph /  3.2km/h 5mph /  8km/h 76% 0.00in /  0mm 0 W/m2
20:09 56.8 °F /  13.8 °C 49 °F /  9.4 °C 29.90in /  1012.4hPa ESE 2.8mph /  4.5km/h 5mph /  8km/h 75.4% 0.00in /  0mm 0 W/m2
20:14 56.8 °F /  13.8 °C 49.3 °F /  9.6 °C 29.90in /  1012.4hPa East 1.2mph /  1.9km/h 7mph /  11.3km/h 76% 0.00in /  0mm 0 W/m2
20:19 56.9 °F /  13.8 °C 49.4 °F /  9.7 °C 29.90in /  1012.4hPa East 0.6mph /  1km/h 3mph /  4.8km/h 76% 0.00in /  0mm 0 W/m2
20:24 56.8 °F /  13.8 °C 49.2 °F /  9.6 °C 29.90in /  1012.4hPa ESE 1.6mph /  2.6km/h 4mph /  6.4km/h 75.6% 0.00in /  0mm 0 W/m2
20:29 56.8 °F /  13.8 °C 49.1 °F /  9.5 °C 29.90in /  1012.4hPa ESE 1.3mph /  2.1km/h 3mph /  4.8km/h 75.8% 0.00in /  0mm 0 W/m2
20:34 56.1 °F /  13.4 °C 48.7 °F /  9.3 °C 29.90in /  1012.4hPa ESE 1.9mph /  3.1km/h 4mph /  6.4km/h 76% 0.00in /  0mm 0 W/m2
20:39 55.2 °F /  12.9 °C 47.9 °F /  8.8 °C 29.90in /  1012.4hPa SE 1.5mph /  2.4km/h 4mph /  6.4km/h 76.2% 0.00in /  0mm 0 W/m2
20:44 55 °F /  12.8 °C 47.9 °F /  8.8 °C 29.89in /  1012.1hPa ESE 1.8mph /  2.9km/h 5mph /  8km/h 77% 0.00in /  0mm 0 W/m2
20:49 55.3 °F /  12.9 °C 48.6 °F /  9.2 °C 29.89in /  1012.1hPa ESE 1.6mph /  2.6km/h 3mph /  4.8km/h 77.8% 0.00in /  0mm 0 W/m2
20:54 55.4 °F /  13 °C 48.5 °F /  9.2 °C 29.90in /  1012.4hPa ESE 0.2mph /  0.3km/h 3mph /  4.8km/h 77.2% 0.00in /  0mm 0 W/m2
20:59 55 °F /  12.8 °C 48.2 °F /  9 °C 29.90in /  1012.4hPa ESE 1.7mph /  2.7km/h 3mph /  4.8km/h 77.6% 0.00in /  0mm 0 W/m2
21:04 54.9 °F /  12.7 °C 48.2 °F /  9 °C 29.89in /  1012.1hPa ESE 0.6mph /  1km/h 3mph /  4.8km/h 78% 0.00in /  0mm 0 W/m2
21:09 54.9 °F /  12.7 °C 48.2 °F /  9 °C 29.89in /  1012.1hPa SE 1.5mph /  2.4km/h 4mph /  6.4km/h 78% 0.00in /  0mm 0 W/m2
21:14 54.9 °F /  12.7 °C 48.2 °F /  9 °C 29.89in /  1012.1hPa SE 1.3mph /  2.1km/h 4mph /  6.4km/h 78% 0.00in /  0mm 0 W/m2
21:19 54.9 °F /  12.7 °C 48.3 °F /  9.1 °C 29.89in /  1012.1hPa SE 0.6mph /  1km/h 3mph /  4.8km/h 78% 0.00in /  0mm 0 W/m2
21:24 55 °F /  12.8 °C 48.4 °F /  9.1 °C 29.88in /  1011.7hPa SE 1.4mph /  2.3km/h 5mph /  8km/h 78% 0.00in /  0mm 0 W/m2
21:29 54.9 °F /  12.7 °C 48.3 °F /  9.1 °C 29.89in /  1012.1hPa SE 1.1mph /  1.8km/h 4mph /  6.4km/h 78% 0.00in /  0mm 0 W/m2
21:34 54.9 °F /  12.7 °C 48.2 °F /  9 °C 29.89in /  1012.1hPa SE 0.9mph /  1.4km/h 3mph /  4.8km/h 78% 0.00in /  0mm 0 W/m2
21:39 54.9 °F /  12.7 °C 48.2 °F /  9 °C 29.88in /  1011.7hPa SE 1.4mph /  2.3km/h 3mph /  4.8km/h 78% 0.00in /  0mm 0 W/m2
21:44 54.9 °F /  12.7 °C 48.2 °F /  9 °C 29.89in /  1012.1hPa SE 1.2mph /  1.9km/h 4mph /  6.4km/h 78% 0.00in /  0mm 0 W/m2
21:49 54.9 °F /  12.7 °C 48.2 °F /  9 °C 29.88in /  1011.7hPa SE 0.4mph /  0.6km/h 2mph /  3.2km/h 78% 0.00in /  0mm 0 W/m2
21:54 54.9 °F /  12.7 °C 48.2 °F /  9 °C 29.88in /  1011.7hPa SE 1.2mph /  1.9km/h 2mph /  3.2km/h 78% 0.00in /  0mm 0 W/m2
21:59 54.9 °F /  12.7 °C 48.2 °F /  9 °C 29.88in /  1011.7hPa SE 0.9mph /  1.4km/h 3mph /  4.8km/h 78% 0.00in /  0mm 0 W/m2
22:04 54.9 °F /  12.7 °C 48.2 °F /  9 °C 29.88in /  1011.7hPa SE 1.2mph /  1.9km/h 3mph /  4.8km/h 78% 0.00in /  0mm 0 W/m2
22:09 54.9 °F /  12.7 °C 48.2 °F /  9 °C 29.88in /  1011.7hPa SE 0.4mph /  0.6km/h 2mph /  3.2km/h 78% 0.00in /  0mm 0 W/m2
22:14 54.9 °F /  12.7 °C 48.2 °F /  9 °C 29.88in /  1011.7hPa SE 0.2mph /  0.3km/h 2mph /  3.2km/h 78% 0.00in /  0mm 0 W/m2
22:19 54.8 °F /  12.7 °C 48.1 °F /  8.9 °C 29.88in /  1011.7hPa Calm   1mph /  1.6km/h 78% 0.00in /  0mm 0 W/m2
22:24 54.9 °F /  12.7 °C 48.2 °F /  9 °C 29.88in /  1011.7hPa Calm     78% 0.00in /  0mm 0 W/m2
22:29 54.8 °F /  12.7 °C 48.1 °F /  8.9 °C 29.88in /  1011.7hPa Calm     78% 0.00in /  0mm 0 W/m2
22:34 54.7 °F /  12.6 °C 48 °F /  8.9 °C 29.88in /  1011.7hPa SE 1.4mph /  2.3km/h 3mph /  4.8km/h 78% 0.00in /  0mm 0 W/m2
22:39 54.7 °F /  12.6 °C 48 °F /  8.9 °C 29.88in /  1011.7hPa SE 0.9mph /  1.4km/h 2mph /  3.2km/h 78% 0.00in /  0mm 0 W/m2
22:44 54.7 °F /  12.6 °C 48 °F /  8.9 °C 29.88in /  1011.7hPa SE 0.8mph /  1.3km/h 3mph /  4.8km/h 78% 0.00in /  0mm 0 W/m2
22:49 54.7 °F /  12.6 °C 48 °F /  8.9 °C 29.88in /  1011.7hPa SE 1mph /  1.6km/h 3mph /  4.8km/h 78% 0.00in /  0mm 0 W/m2
22:54 54.7 °F /  12.6 °C 48 °F /  8.9 °C 29.87in /  1011.4hPa ESE 2mph /  3.2km/h 3mph /  4.8km/h 78% 0.00in /  0mm 0 W/m2
22:59 54.4 °F /  12.4 °C 47.7 °F /  8.7 °C 29.87in /  1011.4hPa NNE 1.6mph /  2.6km/h 4mph /  6.4km/h 78% 0.00in /  0mm 0 W/m2
23:04 54.4 °F /  12.4 °C 47.8 °F /  8.8 °C 29.87in /  1011.4hPa NE 3.1mph /  5km/h 5mph /  8km/h 78.2% 0.00in /  0mm 0 W/m2
23:09 54.6 °F /  12.6 °C 48 °F /  8.9 °C 29.87in /  1011.4hPa ENE 1.3mph /  2.1km/h 5mph /  8km/h 78.2% 0.00in /  0mm 0 W/m2
23:14 54.8 °F /  12.7 °C 48.1 °F /  8.9 °C 29.87in /  1011.4hPa East 1.6mph /  2.6km/h 6mph /  9.7km/h 78% 0.00in /  0mm 0 W/m2
23:19 54.9 °F /  12.7 °C 48.2 °F /  9 °C 29.87in /  1011.4hPa East 0.2mph /  0.3km/h 1mph /  1.6km/h 78% 0.00in /  0mm 0 W/m2
23:24 54.9 °F /  12.7 °C 48.2 °F /  9 °C 29.87in /  1011.4hPa East 0.5mph /  0.8km/h 3mph /  4.8km/h 78% 0.00in /  0mm 0 W/m2
23:29 54.9 °F /  12.7 °C 48.2 °F /  9 °C 29.87in /  1011.4hPa East 0.2mph /  0.3km/h 2mph /  3.2km/h 78% 0.00in /  0mm 0 W/m2
23:34 54.9 °F /  12.7 °C 48.2 °F /  9 °C 29.87in /  1011.4hPa East 0.8mph /  1.3km/h 2mph /  3.2km/h 78% 0.00in /  0mm 0 W/m2
23:39 54.9 °F /  12.7 °C 48.3 °F /  9.1 °C 29.87in /  1011.4hPa East 0.9mph /  1.4km/h 3mph /  4.8km/h 78% 0.00in /  0mm 0 W/m2
23:44 54.9 °F /  12.7 °C 48.3 °F /  9.1 °C 29.87in /  1011.4hPa East 0.7mph /  1.1km/h 3mph /  4.8km/h 78% 0.00in /  0mm 0 W/m2
23:49 54.9 °F /  12.7 °C 48.2 °F /  9 °C 29.87in /  1011.4hPa Calm   2mph /  3.2km/h 78% 0.00in /  0mm 0 W/m2
23:54 54.9 °F /  12.7 °C 48.2 °F /  9 °C 29.86in /  1011.1hPa Calm     78% 0.00in /  0mm 0 W/m2
23:59 54.9 °F /  12.7 °C 48.2 °F /  9 °C 29.86in /  1011.1hPa East 1.2mph /  1.9km/h 3mph /  4.8km/h 78% 0.00in /  0mm 0 W/m2
Bath Spa Weather
Compliments of Weather Underground - 2 mb